createdAt,value
2017-02-04T00:00:04.274Z,931.71
2017-02-04T00:00:32.335Z,931.67
2017-02-04T00:01:00.498Z,931.7
2017-02-04T00:01:28.643Z,931.73
2017-02-04T00:01:56.966Z,931.74
2017-02-04T00:02:25.050Z,931.76
2017-02-04T00:02:53.206Z,931.77
2017-02-04T00:03:21.345Z,931.76
2017-02-04T00:03:49.483Z,931.77
2017-02-04T00:04:17.618Z,931.8
2017-02-04T00:04:45.784Z,931.78
2017-02-04T00:05:13.967Z,931.76
2017-02-04T00:05:42.125Z,931.8
2017-02-04T00:06:10.316Z,931.79
2017-02-04T00:06:38.388Z,931.78
2017-02-04T00:07:06.555Z,931.77
2017-02-04T00:07:34.762Z,931.82
2017-02-04T00:08:02.818Z,931.76
2017-02-04T00:08:30.709Z,931.78
2017-02-04T00:08:58.877Z,931.77
2017-02-04T00:09:27.005Z,931.78
2017-02-04T00:09:55.182Z,931.81
2017-02-04T00:10:23.392Z,931.78
2017-02-04T00:10:51.481Z,931.79
2017-02-04T00:11:19.645Z,931.8
2017-02-04T00:11:47.692Z,931.81
2017-02-04T00:12:15.883Z,931.83
2017-02-04T00:12:44.034Z,931.79
2017-02-04T00:13:12.188Z,931.79
2017-02-04T00:13:40.358Z,931.8
2017-02-04T00:14:08.536Z,931.82
2017-02-04T00:14:36.711Z,931.84
2017-02-04T00:15:04.884Z,931.88
2017-02-04T00:15:32.944Z,931.86
2017-02-04T00:16:01.114Z,931.85
2017-02-04T00:16:29.294Z,931.86
2017-02-04T00:16:57.474Z,931.83
2017-02-04T00:17:25.633Z,931.84
2017-02-04T00:17:53.838Z,931.86
2017-02-04T00:18:21.992Z,931.9
2017-02-04T00:18:50.210Z,931.89
2017-02-04T00:19:18.409Z,931.9
2017-02-04T00:19:46.589Z,931.88
2017-02-04T00:20:14.739Z,931.88
2017-02-04T00:20:42.833Z,931.88
2017-02-04T00:21:10.987Z,931.88
2017-02-04T00:21:39.152Z,931.91
2017-02-04T00:22:07.203Z,931.94
2017-02-04T00:22:35.342Z,931.92
2017-02-04T00:23:03.517Z,931.91
2017-02-04T00:23:31.663Z,931.96
2017-02-04T00:23:59.797Z,931.91
2017-02-04T00:24:27.971Z,931.98
2017-02-04T00:24:56.123Z,931.98
2017-02-04T00:25:24.277Z,932
2017-02-04T00:25:52.451Z,931.99
2017-02-04T00:26:20.611Z,932.02
2017-02-04T00:26:48.792Z,932
2017-02-04T00:27:16.961Z,932.01
2017-02-04T00:27:45.117Z,932.02
2017-02-04T00:28:13.267Z,932.02
2017-02-04T00:28:41.421Z,932.07
2017-02-04T00:29:09.566Z,932.04
2017-02-04T00:29:37.706Z,932.08
2017-02-04T00:30:05.856Z,932.06
2017-02-04T00:30:34.004Z,932.06
2017-02-04T00:31:02.156Z,932.07
2017-02-04T00:31:30.316Z,932.08
2017-02-04T00:31:58.456Z,932.09
2017-02-04T00:32:26.606Z,932.13
2017-02-04T00:32:54.788Z,932.1
2017-02-04T00:33:22.947Z,932.09
2017-02-04T00:33:51.110Z,932.13
2017-02-04T00:34:19.283Z,932.14
2017-02-04T00:34:47.484Z,932.15
2017-02-04T00:35:15.548Z,932.14
2017-02-04T00:35:43.738Z,932.11
2017-02-04T00:36:11.837Z,932.11
2017-02-04T00:36:40.016Z,932.14
2017-02-04T00:37:08.187Z,932.14
2017-02-04T00:37:36.337Z,932.15
2017-02-04T00:38:04.503Z,932.14
2017-02-04T00:38:32.587Z,932.18
2017-02-04T00:39:00.775Z,932.21
2017-02-04T00:39:28.937Z,932.19
2017-02-04T00:39:57.099Z,932.22
2017-02-04T00:40:25.158Z,932.26
2017-02-04T00:40:53.307Z,932.28
2017-02-04T00:41:21.386Z,932.26
2017-02-04T00:41:49.551Z,932.26
2017-02-04T00:42:17.753Z,932.3
2017-02-04T00:42:45.906Z,932.27
2017-02-04T00:43:14.076Z,932.28
2017-02-04T00:43:42.231Z,932.27
2017-02-04T00:44:10.385Z,932.26
2017-02-04T00:44:38.469Z,932.23
2017-02-04T00:45:06.610Z,932.25
2017-02-04T00:45:34.793Z,932.22
2017-02-04T00:46:02.785Z,932.26
2017-02-04T00:46:30.942Z,932.24
2017-02-04T00:46:59.110Z,932.24
2017-02-04T00:47:27.284Z,932.26
2017-02-04T00:47:55.446Z,932.25
2017-02-04T00:48:23.541Z,932.26
2017-02-04T00:48:51.721Z,932.28
2017-02-04T00:49:19.857Z,932.28
2017-02-04T00:49:48.027Z,932.28
2017-02-04T00:50:16.222Z,932.31
2017-02-04T00:50:44.311Z,932.28
2017-02-04T00:51:12.491Z,932.25
2017-02-04T00:51:40.571Z,932.29
2017-02-04T00:52:08.752Z,932.3
2017-02-04T00:52:36.936Z,932.28
2017-02-04T00:53:05.104Z,932.31
2017-02-04T00:53:33.265Z,932.31
2017-02-04T00:54:01.451Z,932.28
2017-02-04T00:54:29.614Z,932.3
2017-02-04T00:54:57.783Z,932.25
2017-02-04T00:55:25.841Z,932.25
2017-02-04T00:55:54.015Z,932.26
2017-02-04T00:56:22.203Z,932.29
2017-02-04T00:56:50.375Z,932.26
2017-02-04T00:57:18.440Z,932.26
2017-02-04T00:57:46.614Z,932.3
2017-02-04T00:58:14.801Z,932.28
2017-02-04T00:58:42.966Z,932.29
2017-02-04T00:59:11.128Z,932.28
2017-02-04T00:59:39.200Z,932.28
2017-02-04T01:00:07.334Z,932.26
2017-02-04T01:00:35.480Z,932.27
2017-02-04T01:01:03.628Z,932.29
2017-02-04T01:01:31.710Z,932.29
2017-02-04T01:01:59.856Z,932.32
2017-02-04T01:02:28.001Z,932.33
2017-02-04T01:02:56.166Z,932.31
2017-02-04T01:03:24.321Z,932.32
2017-02-04T01:03:52.510Z,932.34
2017-02-04T01:04:20.669Z,932.33
2017-02-04T01:04:48.844Z,932.33
2017-02-04T01:05:17.002Z,932.34
2017-02-04T01:05:45.050Z,932.3
2017-02-04T01:06:13.078Z,932.33
2017-02-04T01:06:41.250Z,932.3
2017-02-04T01:07:09.426Z,932.3
2017-02-04T01:07:37.523Z,932.28
2017-02-04T01:08:05.682Z,932.3
2017-02-04T01:08:33.866Z,932.32
2017-02-04T01:09:02.022Z,932.31
2017-02-04T01:09:30.212Z,932.3
2017-02-04T01:09:58.361Z,932.32
2017-02-04T01:10:26.418Z,932.3
2017-02-04T01:10:54.601Z,932.31
2017-02-04T01:11:22.760Z,932.28
2017-02-04T01:11:50.923Z,932.25
2017-02-04T01:12:19.068Z,932.32
2017-02-04T01:12:47.118Z,932.31
2017-02-04T01:13:15.278Z,932.3
2017-02-04T01:13:43.365Z,932.34
2017-02-04T01:14:11.552Z,932.31
2017-02-04T01:14:39.632Z,932.34
2017-02-04T01:15:07.795Z,932.35
2017-02-04T01:15:35.858Z,932.33
2017-02-04T01:16:03.920Z,932.34
2017-02-04T01:16:32.147Z,932.34
2017-02-04T01:17:00.314Z,932.38
2017-02-04T01:17:28.481Z,932.4
2017-02-04T01:17:56.541Z,932.38
2017-02-04T01:18:24.714Z,932.42
2017-02-04T01:18:52.776Z,932.39
2017-02-04T01:19:20.928Z,932.38
2017-02-04T01:19:49.130Z,932.4
2017-02-04T01:20:17.280Z,932.4
2017-02-04T01:20:45.449Z,932.42
2017-02-04T01:21:13.598Z,932.41
2017-02-04T01:21:41.661Z,932.41
2017-02-04T01:22:09.825Z,932.42
2017-02-04T01:22:38.012Z,932.39
2017-02-04T01:23:06.087Z,932.38
2017-02-04T01:23:34.170Z,932.39
2017-02-04T01:24:02.367Z,932.36
2017-02-04T01:24:30.523Z,932.39
2017-02-04T01:24:58.686Z,932.36
2017-02-04T01:25:26.836Z,932.34
2017-02-04T01:25:55.009Z,932.34
2017-02-04T01:26:23.188Z,932.31
2017-02-04T01:26:51.272Z,932.27
2017-02-04T01:27:19.430Z,932.29
2017-02-04T01:27:47.563Z,932.27
2017-02-04T01:28:15.747Z,932.26
2017-02-04T01:28:43.752Z,932.25
2017-02-04T01:29:11.914Z,932.25
2017-02-04T01:29:40.078Z,932.24
2017-02-04T01:30:08.221Z,932.21
2017-02-04T01:30:36.385Z,932.23
2017-02-04T01:31:04.545Z,932.22
2017-02-04T01:31:32.508Z,932.22
2017-02-04T01:32:00.679Z,932.2
2017-02-04T01:32:29.131Z,932.2
2017-02-04T01:32:57.624Z,932.21
2017-02-04T01:33:25.784Z,932.15
2017-02-04T01:33:53.830Z,932.14
2017-02-04T01:34:21.915Z,932.12
2017-02-04T01:34:49.988Z,932.12
2017-02-04T01:35:18.181Z,932.13
2017-02-04T01:35:46.269Z,932.14
2017-02-04T01:36:14.364Z,932.16
2017-02-04T01:36:42.518Z,932.12
2017-02-04T01:37:10.608Z,932.14
2017-02-04T01:37:38.792Z,932.11
2017-02-04T01:38:06.914Z,932.11
2017-02-04T01:38:35.097Z,932.12
2017-02-04T01:39:03.286Z,932.12
2017-02-04T01:39:31.425Z,932.08
2017-02-04T01:39:59.440Z,932.06
2017-02-04T01:40:27.535Z,932.06
2017-02-04T01:40:55.635Z,932.06
2017-02-04T01:41:23.792Z,932.02
2017-02-04T01:41:51.892Z,932.02
2017-02-04T01:42:20.078Z,932.04
2017-02-04T01:42:48.246Z,932.03
2017-02-04T01:43:16.382Z,932.03
2017-02-04T01:43:44.579Z,932.03
2017-02-04T01:44:12.631Z,932.04
2017-02-04T01:44:40.752Z,932.03
2017-02-04T01:45:08.915Z,932.01
2017-02-04T01:45:37.106Z,932.01
2017-02-04T01:46:05.292Z,931.99
2017-02-04T01:46:33.444Z,932.01
2017-02-04T01:47:01.607Z,932.02
2017-02-04T01:47:29.793Z,932.05
2017-02-04T01:47:57.997Z,932.05
2017-02-04T01:48:26.100Z,932.06
2017-02-04T01:48:54.349Z,932.06
2017-02-04T01:49:22.513Z,932.08
2017-02-04T01:49:50.719Z,932.09
2017-02-04T01:50:18.898Z,932.06
2017-02-04T01:50:46.960Z,932.07
2017-02-04T01:51:15.115Z,932.07
2017-02-04T01:51:43.185Z,932.09
2017-02-04T01:52:11.280Z,932.09
2017-02-04T01:52:39.446Z,932.05
2017-02-04T01:53:07.596Z,932.07
2017-02-04T01:53:35.665Z,932.08
2017-02-04T01:54:03.730Z,932.08
2017-02-04T01:54:31.875Z,932.11
2017-02-04T01:54:59.992Z,932.1
2017-02-04T01:55:28.072Z,932.05
2017-02-04T01:55:56.206Z,932.05
2017-02-04T01:56:24.366Z,932.09
2017-02-04T01:56:52.558Z,932.07
2017-02-04T01:57:20.715Z,932.02
2017-02-04T01:57:48.815Z,932.05
2017-02-04T01:58:16.999Z,932.06
2017-02-04T01:58:45.153Z,932.05
2017-02-04T01:59:13.299Z,932.04
2017-02-04T01:59:41.469Z,932.03
2017-02-04T02:00:09.816Z,932.05
2017-02-04T02:00:38.428Z,932.08
2017-02-04T02:01:07.012Z,932.05
2017-02-04T02:01:35.632Z,932.08
2017-02-04T02:02:04.241Z,932.06
2017-02-04T02:02:32.878Z,932.08
2017-02-04T02:03:01.492Z,932.07
2017-02-04T02:03:30.066Z,932.08
2017-02-04T02:03:58.713Z,932.11
2017-02-04T02:04:27.322Z,932.08
2017-02-04T02:04:55.966Z,932.1
2017-02-04T02:05:24.576Z,932.09
2017-02-04T02:05:53.181Z,932.09
2017-02-04T02:06:21.845Z,932.13
2017-02-04T02:06:50.480Z,932.07
2017-02-04T02:07:19.051Z,932.09
2017-02-04T02:07:47.687Z,932.12
2017-02-04T02:08:16.121Z,932.09
2017-02-04T02:08:44.722Z,932.12
2017-02-04T02:09:13.354Z,932.13
2017-02-04T02:09:41.960Z,932.16
2017-02-04T02:10:10.566Z,932.17
2017-02-04T02:10:39.210Z,932.16
2017-02-04T02:11:07.796Z,932.19
2017-02-04T02:11:36.432Z,932.2
2017-02-04T02:12:05.025Z,932.21
2017-02-04T02:12:33.659Z,932.21
2017-02-04T02:13:02.259Z,932.19
2017-02-04T02:13:30.813Z,932.17
2017-02-04T02:13:59.433Z,932.16
2017-02-04T02:14:28.040Z,932.21
2017-02-04T02:14:56.581Z,932.19
2017-02-04T02:15:25.208Z,932.18
2017-02-04T02:15:53.890Z,932.19
2017-02-04T02:16:22.454Z,932.15
2017-02-04T02:16:50.964Z,932.15
2017-02-04T02:17:19.595Z,932.15
2017-02-04T02:17:48.138Z,932.19
2017-02-04T02:18:16.738Z,932.15
2017-02-04T02:18:45.264Z,932.18
2017-02-04T02:19:14.264Z,932.13
2017-02-04T02:19:42.859Z,932.2
2017-02-04T02:20:11.495Z,932.21
2017-02-04T02:20:40.101Z,932.22
2017-02-04T02:21:08.743Z,932.24
2017-02-04T02:21:37.256Z,932.26
2017-02-04T02:22:05.885Z,932.27
2017-02-04T02:22:34.481Z,932.32
2017-02-04T02:23:03.110Z,932.31
2017-02-04T02:23:31.736Z,932.31
2017-02-04T02:24:00.360Z,932.28
2017-02-04T02:24:28.874Z,932.33
2017-02-04T02:24:57.423Z,932.31
2017-02-04T02:25:26.041Z,932.28
2017-02-04T02:25:54.700Z,932.29
2017-02-04T02:26:23.210Z,932.28
2017-02-04T02:26:51.850Z,932.3
2017-02-04T02:27:20.453Z,932.28
2017-02-04T02:27:49.083Z,932.28
2017-02-04T02:28:17.615Z,932.28
2017-02-04T02:28:46.150Z,932.26
2017-02-04T02:29:14.790Z,932.26
2017-02-04T02:29:43.393Z,932.25
2017-02-04T02:30:12.025Z,932.25
2017-02-04T02:30:40.645Z,932.25
2017-02-04T02:31:09.280Z,932.21
2017-02-04T02:31:37.901Z,932.22
2017-02-04T02:32:06.437Z,932.19
2017-02-04T02:32:35.043Z,932.16
2017-02-04T02:33:03.713Z,932.2
2017-02-04T02:33:32.334Z,932.17
2017-02-04T02:34:00.925Z,932.18
2017-02-04T02:34:29.594Z,932.18
2017-02-04T02:34:58.203Z,932.16
2017-02-04T02:35:26.793Z,932.18
2017-02-04T02:35:55.439Z,932.17
2017-02-04T02:36:24.058Z,932.17
2017-02-04T02:36:52.671Z,932.14
2017-02-04T02:37:21.299Z,932.14
2017-02-04T02:37:49.808Z,932.13
2017-02-04T02:38:18.422Z,932.14
2017-02-04T02:38:47.024Z,932.14
2017-02-04T02:39:15.623Z,932.13
2017-02-04T02:39:44.146Z,932.14
2017-02-04T02:40:12.738Z,932.14
2017-02-04T02:40:41.289Z,932.11
2017-02-04T02:41:10.003Z,932.12
2017-02-04T02:41:38.633Z,932.12
2017-02-04T02:42:07.304Z,932.1
2017-02-04T02:42:35.934Z,932.08
2017-02-04T02:43:04.526Z,932.05
2017-02-04T02:43:33.157Z,932.05
2017-02-04T02:44:01.780Z,932.07
2017-02-04T02:44:30.401Z,932.08
2017-02-04T02:44:59.011Z,932.08
2017-02-04T02:45:27.648Z,932.11
2017-02-04T02:45:56.211Z,932.12
2017-02-04T02:46:24.813Z,932.08
2017-02-04T02:46:53.433Z,932.09
2017-02-04T02:47:22.048Z,932.07
2017-02-04T02:47:50.663Z,932.03
2017-02-04T02:48:19.308Z,932.04
2017-02-04T02:48:47.927Z,932.08
2017-02-04T02:49:16.539Z,932.07
2017-02-04T02:49:45.158Z,932.08
2017-02-04T02:50:13.804Z,932.06
2017-02-04T02:50:42.458Z,932.06
2017-02-04T02:51:11.066Z,932.08
2017-02-04T02:51:39.593Z,932.08
2017-02-04T02:52:08.212Z,932.04
2017-02-04T02:52:36.817Z,932.07
2017-02-04T02:53:05.474Z,932.07
2017-02-04T02:53:34.072Z,932.05
2017-02-04T02:54:02.681Z,932.06
2017-02-04T02:54:31.218Z,932.07
2017-02-04T02:54:59.750Z,932.04
2017-02-04T02:55:28.436Z,932.02
2017-02-04T02:55:57.056Z,932.02
2017-02-04T02:56:25.703Z,932.01
2017-02-04T02:56:54.357Z,932.02
2017-02-04T02:57:22.956Z,932.03
2017-02-04T02:57:51.564Z,932.02
2017-02-04T02:58:20.189Z,932
2017-02-04T02:58:48.837Z,932.03
2017-02-04T02:59:17.445Z,932
2017-02-04T02:59:46.083Z,932.02
2017-02-04T03:00:14.681Z,931.98
2017-02-04T03:00:43.313Z,932.01
2017-02-04T03:01:11.913Z,932.05
2017-02-04T03:01:40.525Z,932.04
2017-02-04T03:02:09.033Z,932.04
2017-02-04T03:02:37.661Z,932.04
2017-02-04T03:03:06.257Z,932.05
2017-02-04T03:03:34.876Z,932.03
2017-02-04T03:04:03.493Z,932.03
2017-02-04T03:04:32.110Z,932.04
2017-02-04T03:05:00.734Z,932.05
2017-02-04T03:05:29.317Z,932.02
2017-02-04T03:05:57.921Z,932.03
2017-02-04T03:06:26.429Z,932
2017-02-04T03:06:55.023Z,932.05
2017-02-04T03:07:23.655Z,932.04
2017-02-04T03:07:52.263Z,932.04
2017-02-04T03:08:20.880Z,932.01
2017-02-04T03:08:49.439Z,931.98
2017-02-04T03:09:18.044Z,931.99
2017-02-04T03:09:46.572Z,932
2017-02-04T03:10:15.074Z,931.98
2017-02-04T03:10:43.675Z,931.98
2017-02-04T03:11:12.178Z,931.95
2017-02-04T03:11:40.802Z,931.97
2017-02-04T03:12:09.415Z,931.96
2017-02-04T03:12:38.015Z,931.95
2017-02-04T03:13:06.638Z,931.94
2017-02-04T03:13:35.270Z,931.95
2017-02-04T03:14:03.871Z,931.92
2017-02-04T03:14:32.456Z,931.91
2017-02-04T03:15:01.079Z,931.92
2017-02-04T03:15:29.587Z,931.9
2017-02-04T03:15:58.213Z,931.87
2017-02-04T03:16:26.849Z,931.9
2017-02-04T03:16:55.495Z,931.88
2017-02-04T03:17:24.087Z,931.9
2017-02-04T03:17:52.731Z,931.89
2017-02-04T03:18:21.340Z,931.91
2017-02-04T03:18:49.871Z,931.88
2017-02-04T03:19:18.477Z,931.87
2017-02-04T03:19:47.081Z,931.88
2017-02-04T03:20:15.693Z,931.86
2017-02-04T03:20:44.302Z,931.9
2017-02-04T03:21:12.925Z,931.86
2017-02-04T03:21:41.520Z,931.87
2017-02-04T03:22:10.179Z,931.91
2017-02-04T03:22:38.780Z,931.89
2017-02-04T03:23:07.398Z,931.86
2017-02-04T03:23:36.010Z,931.88
2017-02-04T03:24:04.606Z,931.89
2017-02-04T03:24:33.234Z,931.86
2017-02-04T03:25:01.759Z,931.84
2017-02-04T03:25:30.375Z,931.83
2017-02-04T03:25:59.006Z,931.82
2017-02-04T03:26:27.508Z,931.81
2017-02-04T03:26:56.138Z,931.81
2017-02-04T03:27:24.745Z,931.79
2017-02-04T03:27:53.389Z,931.74
2017-02-04T03:28:22.004Z,931.75
2017-02-04T03:28:50.609Z,931.77
2017-02-04T03:29:19.244Z,931.72
2017-02-04T03:29:47.773Z,931.7
2017-02-04T03:30:16.409Z,931.71
2017-02-04T03:30:45.033Z,931.69
2017-02-04T03:31:13.683Z,931.65
2017-02-04T03:31:42.300Z,931.67
2017-02-04T03:32:10.850Z,931.66
2017-02-04T03:32:39.453Z,931.64
2017-02-04T03:33:08.083Z,931.62
2017-02-04T03:33:36.718Z,931.6
2017-02-04T03:34:05.324Z,931.61
2017-02-04T03:34:33.753Z,931.59
2017-02-04T03:35:02.356Z,931.56
2017-02-04T03:35:30.988Z,931.56
2017-02-04T03:35:59.581Z,931.55
2017-02-04T03:36:28.112Z,931.54
2017-02-04T03:36:56.735Z,931.55
2017-02-04T03:37:25.340Z,931.55
2017-02-04T03:37:53.888Z,931.51
2017-02-04T03:38:22.520Z,931.5
2017-02-04T03:38:51.065Z,931.49
2017-02-04T03:39:19.701Z,931.49
2017-02-04T03:39:48.327Z,931.48
2017-02-04T03:40:16.938Z,931.51
2017-02-04T03:40:45.537Z,931.47
2017-02-04T03:41:14.124Z,931.49
2017-02-04T03:41:42.752Z,931.49
2017-02-04T03:42:11.355Z,931.47
2017-02-04T03:42:39.975Z,931.49
2017-02-04T03:43:08.601Z,931.46
2017-02-04T03:43:37.201Z,931.46
2017-02-04T03:44:05.832Z,931.49
2017-02-04T03:44:34.477Z,931.47
2017-02-04T03:45:03.089Z,931.43
2017-02-04T03:45:31.618Z,931.44
2017-02-04T03:46:00.246Z,931.44
2017-02-04T03:46:28.849Z,931.43
2017-02-04T03:46:57.459Z,931.41
2017-02-04T03:47:25.972Z,931.42
2017-02-04T03:47:54.584Z,931.38
2017-02-04T03:48:23.098Z,931.35
2017-02-04T03:48:51.721Z,931.35
2017-02-04T03:49:20.255Z,931.35
2017-02-04T03:49:48.883Z,931.34
2017-02-04T03:50:17.462Z,931.33
2017-02-04T03:50:46.087Z,931.31
2017-02-04T03:51:14.736Z,931.3
2017-02-04T03:51:43.243Z,931.29
2017-02-04T03:52:11.766Z,931.29
2017-02-04T03:52:40.393Z,931.3
2017-02-04T03:53:09.010Z,931.28
2017-02-04T03:53:37.601Z,931.24
2017-02-04T03:54:06.225Z,931.23
2017-02-04T03:54:34.733Z,931.24
2017-02-04T03:55:03.268Z,931.25
2017-02-04T03:55:31.889Z,931.26
2017-02-04T03:56:00.497Z,931.23
2017-02-04T03:56:28.948Z,931.3
2017-02-04T03:56:57.563Z,931.25
2017-02-04T03:57:26.300Z,931.27
2017-02-04T03:57:54.906Z,931.28
2017-02-04T03:58:23.522Z,931.29
2017-02-04T03:58:52.141Z,931.24
2017-02-04T03:59:20.676Z,931.25
2017-02-04T03:59:49.293Z,931.24
2017-02-04T04:00:17.914Z,931.25
2017-02-04T04:00:46.538Z,931.24
2017-02-04T04:01:15.137Z,931.27
2017-02-04T04:01:43.747Z,931.24
2017-02-04T04:02:12.386Z,931.22
2017-02-04T04:02:41.018Z,931.22
2017-02-04T04:03:09.647Z,931.16
2017-02-04T04:03:38.296Z,931.18
2017-02-04T04:04:06.915Z,931.16
2017-02-04T04:04:35.554Z,931.13
2017-02-04T04:05:04.169Z,931.12
2017-02-04T04:05:32.768Z,931.1
2017-02-04T04:06:01.395Z,931.09
2017-02-04T04:06:30.025Z,931.1
2017-02-04T04:06:58.637Z,931.09
2017-02-04T04:07:27.261Z,931.06
2017-02-04T04:07:55.911Z,931.04
2017-02-04T04:08:24.501Z,931.06
2017-02-04T04:08:53.136Z,931.05
2017-02-04T04:09:21.773Z,930.99
2017-02-04T04:09:50.388Z,931.01
2017-02-04T04:10:19.015Z,931
2017-02-04T04:10:47.626Z,931
2017-02-04T04:11:16.248Z,930.99
2017-02-04T04:11:46.659Z,930.99
2017-02-04T04:12:15.323Z,930.97
2017-02-04T04:12:43.929Z,930.93
2017-02-04T04:13:12.550Z,930.95
2017-02-04T04:13:41.155Z,930.97
2017-02-04T04:14:09.775Z,930.92
2017-02-04T04:14:38.416Z,930.91
2017-02-04T04:15:07.089Z,930.95
2017-02-04T04:15:35.695Z,930.9
2017-02-04T04:16:04.302Z,930.9
2017-02-04T04:16:32.841Z,930.91
2017-02-04T04:17:02.808Z,930.88
2017-02-04T04:17:31.337Z,930.89
2017-02-04T04:17:59.953Z,930.86
2017-02-04T04:18:28.565Z,930.84
2017-02-04T04:18:57.213Z,930.87
2017-02-04T04:19:25.858Z,930.85
2017-02-04T04:19:54.481Z,930.84
2017-02-04T04:20:22.918Z,930.85
2017-02-04T04:20:51.501Z,930.86
2017-02-04T04:21:20.123Z,930.85
2017-02-04T04:21:48.789Z,930.82
2017-02-04T04:22:17.431Z,930.81
2017-02-04T04:22:46.026Z,930.83
2017-02-04T04:23:14.655Z,930.81
2017-02-04T04:23:43.269Z,930.85
2017-02-04T04:24:11.798Z,930.86
2017-02-04T04:24:40.391Z,930.87
2017-02-04T04:25:09.023Z,930.89
2017-02-04T04:25:37.725Z,930.88
2017-02-04T04:26:07.048Z,930.87
2017-02-04T04:26:35.715Z,930.87
2017-02-04T04:27:04.325Z,930.91
2017-02-04T04:27:32.930Z,930.9
2017-02-04T04:28:01.541Z,930.89
2017-02-04T04:28:30.081Z,930.89
2017-02-04T04:28:58.604Z,930.91
2017-02-04T04:29:27.250Z,930.9
2017-02-04T04:29:55.863Z,930.91
2017-02-04T04:30:24.500Z,930.9
2017-02-04T04:30:52.974Z,930.98
2017-02-04T04:31:21.576Z,930.95
2017-02-04T04:31:50.181Z,930.94
2017-02-04T04:32:18.716Z,930.96
2017-02-04T04:32:47.276Z,930.97
2017-02-04T04:33:15.826Z,930.95
2017-02-04T04:33:44.457Z,930.93
2017-02-04T04:34:13.082Z,930.92
2017-02-04T04:34:41.706Z,930.93
2017-02-04T04:35:10.151Z,930.91
2017-02-04T04:35:38.703Z,930.93
2017-02-04T04:36:07.206Z,930.89
2017-02-04T04:36:35.849Z,930.93
2017-02-04T04:37:04.496Z,930.87
2017-02-04T04:37:33.033Z,930.87
2017-02-04T04:38:01.639Z,930.86
2017-02-04T04:38:30.186Z,930.83
2017-02-04T04:38:58.848Z,930.87
2017-02-04T04:39:27.460Z,930.89
2017-02-04T04:39:55.981Z,930.86
2017-02-04T04:40:24.621Z,930.87
2017-02-04T04:40:53.188Z,930.87
2017-02-04T04:41:21.799Z,930.88
2017-02-04T04:41:50.312Z,930.84
2017-02-04T04:42:18.863Z,930.9
2017-02-04T04:42:47.499Z,930.88
2017-02-04T04:43:16.132Z,930.86
2017-02-04T04:43:44.678Z,930.9
2017-02-04T04:44:13.307Z,930.86
2017-02-04T04:44:41.921Z,930.88
2017-02-04T04:45:10.556Z,930.85
2017-02-04T04:45:39.227Z,930.8
2017-02-04T04:46:07.826Z,930.84
2017-02-04T04:46:36.355Z,930.84
2017-02-04T04:47:04.954Z,930.83
2017-02-04T04:47:33.450Z,930.79
2017-02-04T04:48:02.077Z,930.78
2017-02-04T04:48:30.607Z,930.82
2017-02-04T04:48:59.228Z,930.8
2017-02-04T04:49:27.841Z,930.82
2017-02-04T04:49:56.438Z,930.75
2017-02-04T04:50:25.064Z,930.8
2017-02-04T04:50:53.696Z,930.8
2017-02-04T04:51:22.338Z,930.81
2017-02-04T04:51:50.943Z,930.76
2017-02-04T04:52:19.470Z,930.79
2017-02-04T04:52:48.115Z,930.78
2017-02-04T04:53:16.734Z,930.81
2017-02-04T04:53:45.378Z,930.78
2017-02-04T04:54:13.916Z,930.81
2017-02-04T04:54:42.577Z,930.78
2017-02-04T04:55:11.015Z,930.82
2017-02-04T04:55:39.737Z,930.8
2017-02-04T04:56:08.342Z,930.78
2017-02-04T04:56:37.040Z,930.81
2017-02-04T04:57:05.457Z,930.81
2017-02-04T04:57:34.089Z,930.8
2017-02-04T04:58:02.622Z,930.8
2017-02-04T04:58:31.241Z,930.82
2017-02-04T04:58:59.878Z,930.81
2017-02-04T04:59:28.511Z,930.79
2017-02-04T04:59:57.299Z,930.8
2017-02-04T05:00:25.950Z,930.83
2017-02-04T05:00:54.465Z,930.84
2017-02-04T05:01:23.011Z,930.82
2017-02-04T05:01:51.628Z,930.83
2017-02-04T05:02:20.216Z,930.81
2017-02-04T05:02:48.848Z,930.86
2017-02-04T05:03:17.390Z,930.82
2017-02-04T05:03:45.868Z,930.84
2017-02-04T05:04:14.481Z,930.85
2017-02-04T05:04:43.104Z,930.8
2017-02-04T05:05:11.548Z,930.86
2017-02-04T05:05:40.087Z,930.84
2017-02-04T05:06:08.725Z,930.82
2017-02-04T05:06:37.313Z,930.82
2017-02-04T05:07:05.949Z,930.83
2017-02-04T05:07:34.543Z,930.8
2017-02-04T05:08:03.151Z,930.8
2017-02-04T05:08:31.778Z,930.82
2017-02-04T05:09:00.190Z,930.83
2017-02-04T05:09:28.816Z,930.8
2017-02-04T05:09:57.419Z,930.84
2017-02-04T05:10:26.065Z,930.8
2017-02-04T05:10:54.578Z,930.8
2017-02-04T05:11:23.209Z,930.81
2017-02-04T05:11:51.662Z,930.82
2017-02-04T05:12:20.287Z,930.83
2017-02-04T05:12:48.910Z,930.8
2017-02-04T05:13:17.509Z,930.83
2017-02-04T05:13:46.163Z,930.83
2017-02-04T05:14:14.751Z,930.83
2017-02-04T05:14:43.267Z,930.85
2017-02-04T05:15:11.885Z,930.81
2017-02-04T05:15:40.521Z,930.78
2017-02-04T05:16:09.132Z,930.76
2017-02-04T05:16:37.752Z,930.75
2017-02-04T05:17:06.381Z,930.73
2017-02-04T05:17:35.021Z,930.75
2017-02-04T05:18:03.646Z,930.76
2017-02-04T05:18:32.264Z,930.78
2017-02-04T05:19:00.859Z,930.75
2017-02-04T05:19:29.472Z,930.75
2017-02-04T05:19:58.064Z,930.75
2017-02-04T05:20:26.601Z,930.76
2017-02-04T05:20:55.223Z,930.74
2017-02-04T05:21:23.823Z,930.7
2017-02-04T05:21:52.443Z,930.74
2017-02-04T05:22:21.044Z,930.7
2017-02-04T05:22:49.580Z,930.73
2017-02-04T05:23:18.197Z,930.73
2017-02-04T05:23:46.833Z,930.71
2017-02-04T05:24:15.454Z,930.68
2017-02-04T05:24:44.087Z,930.7
2017-02-04T05:25:12.711Z,930.65
2017-02-04T05:25:41.298Z,930.62
2017-02-04T05:26:09.909Z,930.63
2017-02-04T05:26:38.537Z,930.64
2017-02-04T05:27:07.169Z,930.65
2017-02-04T05:27:35.803Z,930.67
2017-02-04T05:28:04.438Z,930.63
2017-02-04T05:28:32.981Z,930.64
2017-02-04T05:29:01.505Z,930.66
2017-02-04T05:29:30.119Z,930.68
2017-02-04T05:29:58.642Z,930.68
2017-02-04T05:30:27.275Z,930.64
2017-02-04T05:30:55.892Z,930.66
2017-02-04T05:31:24.420Z,930.7
2017-02-04T05:31:52.849Z,930.71
2017-02-04T05:32:21.478Z,930.7
2017-02-04T05:32:50.001Z,930.68
2017-02-04T05:33:18.655Z,930.69
2017-02-04T05:33:47.191Z,930.69
2017-02-04T05:34:15.805Z,930.7
2017-02-04T05:34:44.469Z,930.72
2017-02-04T05:35:13.112Z,930.73
2017-02-04T05:35:41.753Z,930.75
2017-02-04T05:36:10.294Z,930.78
2017-02-04T05:36:38.793Z,930.79
2017-02-04T05:37:07.425Z,930.8
2017-02-04T05:37:36.069Z,930.84
2017-02-04T05:38:04.560Z,930.85
2017-02-04T05:38:33.076Z,930.85
2017-02-04T05:39:01.696Z,930.9
2017-02-04T05:39:30.330Z,930.88
2017-02-04T05:39:58.938Z,930.89
2017-02-04T05:40:27.558Z,930.91
2017-02-04T05:40:56.076Z,930.92
2017-02-04T05:41:24.684Z,930.91
2017-02-04T05:41:53.319Z,930.9
2017-02-04T05:42:21.923Z,930.92
2017-02-04T05:42:50.537Z,930.93
2017-02-04T05:43:19.075Z,930.93
2017-02-04T05:43:47.732Z,930.93
2017-02-04T05:44:16.252Z,930.93
2017-02-04T05:44:44.872Z,930.91
2017-02-04T05:45:13.496Z,930.9
2017-02-04T05:45:42.103Z,930.93
2017-02-04T05:46:10.746Z,930.9
2017-02-04T05:46:39.362Z,930.89
2017-02-04T05:47:07.875Z,930.86
2017-02-04T05:47:36.315Z,930.91
2017-02-04T05:48:04.930Z,930.89
2017-02-04T05:48:33.545Z,930.87
2017-02-04T05:49:02.185Z,930.83
2017-02-04T05:49:30.725Z,930.86
2017-02-04T05:49:59.340Z,930.83
2017-02-04T05:50:27.956Z,930.84
2017-02-04T05:50:56.529Z,930.83
2017-02-04T05:51:25.143Z,930.83
2017-02-04T05:51:53.761Z,930.82
2017-02-04T05:52:22.407Z,930.8
2017-02-04T05:52:51.043Z,930.8
2017-02-04T05:53:19.472Z,930.85
2017-02-04T05:53:48.082Z,930.83
2017-02-04T05:54:16.681Z,930.81
2017-02-04T05:54:45.303Z,930.8
2017-02-04T05:55:13.817Z,930.81
2017-02-04T05:55:42.429Z,930.82
2017-02-04T05:56:11.049Z,930.82